Time;durP1;ratioP1;P1;durP2;ratioP2;P2;SDS_P1;SDS_P2;PMS_P1;PMS_P2;Temp;Humidity;BMP_temperature;BMP_pressure;BME280_temperature;BME280_humidity;BME280_pressure;Samples;Min_cycle;Max_cycle;Signal;HPM_P1;HPM_P2
2023/08/07 00:01:57;;;;;;;6.88;2.70;;;17.40;99.90;;;;;;5054247;28;20115;-60
2023/08/07 00:04:22;;;;;;;8.30;3.13;;;17.30;99.90;;;;;;5054026;28;20032;-59
2023/08/07 00:06:48;;;;;;;7.50;2.53;;;16.90;99.90;;;;;;5054063;28;20029;-60
2023/08/07 00:09:14;;;;;;;7.75;2.80;;;16.70;99.90;;;;;;5053972;28;20029;-60
2023/08/07 00:11:40;;;;;;;7.85;2.78;;;16.50;99.90;;;;;;5054319;28;20033;-59
2023/08/07 00:14:05;;;;;;;8.40;2.65;;;16.40;99.90;;;;;;5053623;28;20393;-60
2023/08/07 00:16:31;;;;;;;7.50;2.50;;;16.30;99.90;;;;;;5053897;28;20112;-60
2023/08/07 00:18:57;;;;;;;6.32;2.65;;;16.10;99.90;;;;;;5053693;28;20020;-60
2023/08/07 00:21:23;;;;;;;7.00;2.50;;;16.10;99.90;;;;;;5053837;28;20029;-60
2023/08/07 00:23:49;;;;;;;5.80;2.63;;;15.90;99.90;;;;;;5053719;28;20090;-60
2023/08/07 00:26:15;;;;;;;6.60;2.70;;;15.90;99.90;;;;;;5053491;28;20130;-60
2023/08/07 00:28:41;;;;;;;8.13;3.33;;;15.90;99.90;;;;;;5053958;28;20040;-60
2023/08/07 00:31:07;;;;;;;8.25;2.35;;;15.80;99.90;;;;;;5053545;28;20029;-60
2023/08/07 00:33:32;;;;;;;9.10;2.90;;;15.80;99.90;;;;;;5053176;28;20039;-60
2023/08/07 00:35:58;;;;;;;7.15;2.88;;;15.60;99.90;;;;;;5053603;28;20028;-59
2023/08/07 00:38:24;;;;;;;6.72;2.75;;;15.70;99.90;;;;;;5053521;28;20557;-60
2023/08/07 00:40:49;;;;;;;7.40;2.88;;;15.60;99.90;;;;;;5053531;28;20045;-60
2023/08/07 00:43:15;;;;;;;8.57;2.72;;;15.60;99.90;;;;;;5053328;28;20116;-60
2023/08/07 00:45:44;;;;;;;6.07;2.47;;;15.50;99.90;;;;;;5053338;28;20071;-60
2023/08/07 00:48:12;;;;;;;6.07;2.60;;;15.50;99.90;;;;;;5053299;28;20060;-60
2023/08/07 00:50:38;;;;;;;6.50;2.55;;;15.40;99.90;;;;;;5053337;28;20029;-60
2023/08/07 00:53:04;;;;;;;5.50;2.45;;;15.40;99.90;;;;;;5053470;28;20029;-60
2023/08/07 00:55:30;;;;;;;6.28;2.38;;;15.60;99.90;;;;;;5053182;28;20029;-59
2023/08/07 00:57:58;;;;;;;7.35;2.70;;;15.90;99.90;;;;;;5053128;28;20031;-60
2023/08/07 01:00:25;;;;;;;6.53;2.55;;;16.10;99.90;;;;;;5052661;28;20486;-59
2023/08/07 01:02:52;;;;;;;8.73;2.78;;;16.10;99.90;;;;;;5052289;28;20524;-60
2023/08/07 01:05:19;;;;;;;5.85;2.50;;;16.30;99.90;;;;;;5053244;28;20029;-60
2023/08/07 01:07:47;;;;;;;7.72;2.30;;;16.20;99.90;;;;;;5052923;28;20025;-60
2023/08/07 01:10:13;;;;;;;7.53;2.70;;;16.30;99.90;;;;;;5053114;28;20028;-60
2023/08/07 01:12:59;;;;;;;8.23;2.42;;;16.20;99.90;;;;;;5052796;28;20033;-60
2023/08/07 01:15:32;;;;;;;7.03;2.95;;;16.20;99.90;;;;;;5052329;28;20078;-60
2023/08/07 01:17:59;;;;;;;6.32;2.75;;;16.20;99.90;;;;;;5053108;28;20124;-60
2023/08/07 01:20:25;;;;;;;7.45;2.72;;;16.10;99.90;;;;;;5052668;28;20032;-59
2023/08/07 01:22:51;;;;;;;5.30;2.40;;;15.80;99.90;;;;;;5052436;28;20041;-60
2023/08/07 01:25:16;;;;;;;6.82;2.47;;;15.60;99.90;;;;;;5052325;28;20525;-60
2023/08/07 01:27:49;;;;;;;8.50;2.88;;;15.40;99.90;;;;;;5052416;28;20028;-60
2023/08/07 01:30:30;;;;;;;7.13;2.40;;;15.30;99.90;;;;;;5051925;28;20021;-60
2023/08/07 01:33:15;;;;;;;7.72;2.80;;;15.20;99.90;;;;;;5052364;28;20082;-60
2023/08/07 01:35:44;;;;;;;4.72;2.80;;;15.20;99.90;;;;;;5052814;28;20146;-60
2023/08/07 01:38:12;;;;;;;7.68;2.60;;;15.10;99.90;;;;;;5052267;28;20033;-60
2023/08/07 01:40:39;;;;;;;6.00;2.75;;;15.00;99.90;;;;;;5052248;28;20028;-60
2023/08/07 01:43:05;;;;;;;6.03;2.50;;;14.90;99.90;;;;;;5052213;28;20060;-61
2023/08/07 01:45:31;;;;;;;5.88;2.40;;;14.80;99.90;;;;;;5052255;28;20499;-60
2023/08/07 01:47:57;;;;;;;6.63;2.67;;;14.70;99.90;;;;;;5052336;28;20155;-60
2023/08/07 01:50:24;;;;;;;7.22;2.60;;;14.70;99.90;;;;;;5052147;28;20032;-60
2023/08/07 01:52:49;;;;;;;6.38;2.75;;;14.70;99.90;;;;;;5051907;28;20053;-60
2023/08/07 01:55:17;;;;;;;7.60;2.60;;;14.60;99.90;;;;;;5052489;28;20126;-60
2023/08/07 01:57:43;;;;;;;5.45;2.58;;;14.60;99.90;;;;;;5051922;28;20029;-59
2023/08/07 02:00:10;;;;;;;7.88;3.00;;;14.70;99.90;;;;;;5051525;28;20025;-60
2023/08/07 02:02:36;;;;;;;7.72;2.58;;;14.60;99.90;;;;;;5052196;28;20037;-60
2023/08/07 02:05:02;;;;;;;8.00;2.90;;;14.60;99.90;;;;;;5051853;28;20029;-60
2023/08/07 02:07:28;;;;;;;8.70;2.90;;;14.40;99.90;;;;;;5051780;28;20048;-60
2023/08/07 02:09:53;;;;;;;8.65;2.53;;;14.40;99.90;;;;;;5051728;28;20486;-60
2023/08/07 02:12:19;;;;;;;8.05;2.92;;;14.50;99.90;;;;;;5051565;28;20108;-60
2023/08/07 02:14:45;;;;;;;9.18;3.13;;;14.80;99.90;;;;;;5051008;28;20033;-59
2023/08/07 02:17:11;;;;;;;7.65;2.60;;;14.90;99.90;;;;;;5051552;28;20059;-60
2023/08/07 02:19:36;;;;;;;5.70;2.80;;;15.00;99.90;;;;;;5051712;28;20120;-60
2023/08/07 02:22:03;;;;;;;8.30;2.88;;;15.10;99.90;;;;;;5051414;28;20557;-59
2023/08/07 02:24:29;;;;;;;7.10;2.72;;;15.10;99.90;;;;;;5051404;28;20044;-60
2023/08/07 02:26:54;;;;;;;5.25;2.60;;;15.10;99.90;;;;;;5051293;28;20017;-60
2023/08/07 02:29:20;;;;;;;7.65;2.83;;;15.10;99.90;;;;;;5050109;28;20024;-60
2023/08/07 02:31:46;;;;;;;5.90;2.78;;;15.00;99.90;;;;;;5051289;28;20033;-59
2023/08/07 02:34:11;;;;;;;8.93;2.78;;;15.10;99.90;;;;;;5051316;28;20039;-60
2023/08/07 02:36:37;;;;;;;7.18;2.70;;;15.00;99.90;;;;;;5050149;28;20108;-60
2023/08/07 02:39:04;;;;;;;7.70;2.50;;;14.80;99.90;;;;;;5050926;28;20195;-59
2023/08/07 02:41:31;;;;;;;10.27;3.05;;;14.60;99.90;;;;;;5051222;28;20075;-60
2023/08/07 02:43:57;;;;;;;5.63;2.83;;;14.30;99.90;;;;;;5051454;28;20068;-60
2023/08/07 02:46:23;;;;;;;7.05;3.40;;;14.20;99.90;;;;;;5051208;28;20025;-60
2023/08/07 02:48:48;;;;;;;7.47;2.83;;;14.10;99.90;;;;;;5051037;28;20490;-60
2023/08/07 02:51:14;;;;;;;7.07;3.00;;;14.00;99.90;;;;;;5051095;28;20025;-60
2023/08/07 02:53:40;;;;;;;7.88;2.95;;;13.90;99.90;;;;;;5051039;28;20052;-60
2023/08/07 02:56:05;;;;;;;8.05;3.00;;;13.90;99.90;;;;;;5050881;28;20158;-59
2023/08/07 02:58:31;;;;;;;6.47;2.80;;;13.80;99.90;;;;;;5051075;28;20486;-60
2023/08/07 03:01:02;;;;;;;5.93;2.72;;;13.80;99.90;;;;;;5050917;28;20033;-60
2023/08/07 03:03:28;;;;;;;5.90;2.60;;;13.80;99.90;;;;;;5051101;28;20111;-60
2023/08/07 03:05:53;;;;;;;5.43;2.50;;;13.70;99.90;;;;;;5051021;28;20160;-59
2023/08/07 03:08:19;;;;;;;6.72;2.75;;;13.70;99.90;;;;;;5051139;28;20108;-60
2023/08/07 03:10:58;;;;;;;6.97;2.88;;;13.60;99.90;;;;;;5050612;28;20029;-59
2023/08/07 03:13:25;;;;;;;5.82;2.78;;;13.60;99.90;;;;;;5050751;28;20036;-60
2023/08/07 03:16:02;;;;;;;5.35;2.60;;;13.70;99.90;;;;;;5050742;28;20025;-60
2023/08/07 03:18:28;;;;;;;7.78;2.85;;;13.50;99.90;;;;;;5050897;28;20040;-59
2023/08/07 03:20:57;;;;;;;6.82;2.58;;;13.50;99.90;;;;;;5051025;28;20478;-60
2023/08/07 03:23:24;;;;;;;7.35;2.90;;;13.50;99.90;;;;;;5050560;28;20464;-59
2023/08/07 03:25:50;;;;;;;6.05;2.55;;;13.50;99.90;;;;;;5052530;28;20045;-59
2023/08/07 03:28:17;;;;;;;6.75;2.90;;;13.40;99.90;;;;;;5054970;28;20363;-59
2023/08/07 03:30:44;;;;;;;8.00;2.88;;;13.70;99.90;;;;;;5054627;28;20021;-59
2023/08/07 03:33:10;;;;;;;7.97;2.60;;;13.90;99.90;;;;;;5054754;28;20032;-60
2023/08/07 03:35:36;;;;;;;5.90;2.67;;;13.90;99.90;;;;;;5054599;28;20017;-59
2023/08/07 03:38:01;;;;;;;6.00;2.55;;;14.00;99.90;;;;;;5054559;28;20456;-59
2023/08/07 03:40:27;;;;;;;6.53;2.65;;;14.00;99.90;;;;;;5054712;28;20025;-60
2023/08/07 03:42:53;;;;;;;6.93;2.70;;;14.10;99.90;;;;;;5054393;28;20037;-59
2023/08/07 03:45:18;;;;;;;7.13;2.33;;;14.00;99.90;;;;;;5054523;28;20021;-59
2023/08/07 03:47:44;;;;;;;7.78;2.88;;;14.10;99.90;;;;;;5054607;28;20120;-59
2023/08/07 03:50:10;;;;;;;5.90;2.40;;;14.00;99.90;;;;;;5054353;28;20025;-59
2023/08/07 03:52:35;;;;;;;6.38;2.72;;;14.00;99.90;;;;;;5054579;28;20099;-59
2023/08/07 03:55:01;;;;;;;7.03;2.67;;;13.80;99.90;;;;;;5053829;28;20036;-60
2023/08/07 03:57:26;;;;;;;6.80;2.42;;;13.60;99.90;;;;;;5054080;28;20037;-60
2023/08/07 03:59:54;;;;;;;6.93;2.50;;;13.40;99.90;;;;;;5053874;28;20122;-59
2023/08/07 04:02:19;;;;;;;6.93;2.80;;;13.20;99.90;;;;;;5053931;28;20443;-60
2023/08/07 04:04:45;;;;;;;6.10;2.72;;;13.10;99.90;;;;;;5054332;28;20033;-60
2023/08/07 04:07:11;;;;;;;7.03;2.70;;;13.10;99.90;;;;;;5054025;28;20371;-60
2023/08/07 04:09:36;;;;;;;6.60;2.65;;;13.00;99.90;;;;;;5053541;28;20402;-59
2023/08/07 04:12:02;;;;;;;8.73;2.92;;;12.90;99.90;;;;;;5053947;28;20414;-60
2023/08/07 04:14:28;;;;;;;4.55;2.40;;;12.90;99.90;;;;;;5054178;28;20485;-60
2023/08/07 04:16:54;;;;;;;5.72;2.53;;;12.80;99.90;;;;;;5053692;28;20112;-59
2023/08/07 04:19:20;;;;;;;5.43;2.70;;;12.80;99.90;;;;;;5053802;28;20054;-59
2023/08/07 04:21:46;;;;;;;6.25;2.75;;;12.80;99.90;;;;;;5054016;28;20070;-60
2023/08/07 04:24:11;;;;;;;7.80;2.60;;;12.70;99.90;;;;;;5053188;28;20053;-59
2023/08/07 04:26:38;;;;;;;6.15;2.75;;;12.70;99.90;;;;;;5053661;28;20082;-60
2023/08/07 04:29:04;;;;;;;5.85;2.80;;;12.70;99.90;;;;;;5053575;28;20634;-59
2023/08/07 04:31:32;;;;;;;6.28;2.80;;;12.60;99.90;;;;;;5053558;28;20029;-59
2023/08/07 04:33:58;;;;;;;7.25;2.70;;;12.60;99.90;;;;;;5053915;28;20048;-59
2023/08/07 04:36:24;;;;;;;7.18;2.75;;;12.60;99.90;;;;;;5052732;28;20060;-59
2023/08/07 04:38:50;;;;;;;6.32;3.10;;;12.60;99.90;;;;;;5052533;28;20021;-59
2023/08/07 04:41:16;;;;;;;6.07;2.72;;;12.70;99.90;;;;;;5053780;28;20033;-59
2023/08/07 04:43:44;;;;;;;5.38;2.67;;;12.60;99.90;;;;;;5053277;28;20047;-59
2023/08/07 04:46:11;;;;;;;6.28;2.60;;;12.60;99.90;;;;;;5053417;28;20025;-59
2023/08/07 04:48:37;;;;;;;6.03;2.70;;;12.70;99.90;;;;;;5053257;28;20100;-59
2023/08/07 04:51:03;;;;;;;7.43;2.70;;;12.90;99.90;;;;;;5053534;28;20443;-59
2023/08/07 04:53:29;;;;;;;5.28;2.88;;;13.10;99.90;;;;;;5052739;28;20059;-59
2023/08/07 04:55:54;;;;;;;5.63;2.72;;;13.20;99.90;;;;;;5053231;28;20100;-59
2023/08/07 04:58:20;;;;;;;6.78;2.75;;;13.20;99.90;;;;;;5053499;28;20064;-60
2023/08/07 05:00:46;;;;;;;5.68;2.60;;;13.30;99.90;;;;;;5052950;28;20052;-59
2023/08/07 05:03:11;;;;;;;5.45;2.65;;;13.40;99.90;;;;;;5053078;28;20076;-59
2023/08/07 05:05:37;;;;;;;6.15;2.50;;;13.40;99.90;;;;;;5052876;28;20021;-59
2023/08/07 05:08:03;;;;;;;4.78;2.40;;;13.40;99.90;;;;;;5053138;28;20029;-59
2023/08/07 05:10:29;;;;;;;6.35;2.53;;;13.40;99.90;;;;;;5052957;28;20540;-60
2023/08/07 05:12:55;;;;;;;6.45;2.75;;;13.30;99.90;;;;;;5052765;28;20025;-59
2023/08/07 05:15:25;;;;;;;6.00;2.95;;;13.00;99.90;;;;;;5052919;28;20033;-59
2023/08/07 05:17:51;;;;;;;6.20;2.72;;;12.80;99.90;;;;;;5052875;28;20029;-59
2023/08/07 05:20:17;;;;;;;6.93;2.60;;;12.70;99.90;;;;;;5052465;28;20040;-59
2023/08/07 05:22:44;;;;;;;5.53;2.53;;;12.60;99.90;;;;;;5052307;28;20033;-59
2023/08/07 05:25:11;;;;;;;4.90;2.67;;;12.50;99.90;;;;;;5052918;28;20040;-60
2023/08/07 05:27:37;;;;;;;5.50;2.88;;;12.50;99.90;;;;;;5052482;28;20048;-60
2023/08/07 05:30:03;;;;;;;6.28;2.70;;;12.60;99.90;;;;;;5052507;28;20017;-60
2023/08/07 05:32:29;;;;;;;8.15;3.45;;;12.50;99.90;;;;;;5052509;28;20398;-59
2023/08/07 05:34:55;;;;;;;6.10;2.50;;;12.50;99.90;;;;;;5052639;28;20025;-60
2023/08/07 05:37:20;;;;;;;6.65;2.70;;;12.50;99.90;;;;;;5051983;28;20050;-59
2023/08/07 05:39:46;;;;;;;5.75;2.63;;;12.50;99.90;;;;;;5052315;28;20033;-59
2023/08/07 05:42:12;;;;;;;6.40;3.22;;;12.50;99.90;;;;;;5052029;28;20074;-59
2023/08/07 05:44:38;;;;;;;7.13;3.13;;;12.50;99.90;;;;;;5052298;28;20021;-59
2023/08/07 05:47:04;;;;;;;6.72;2.95;;;12.50;99.90;;;;;;5050892;28;20025;-59
2023/08/07 05:49:29;;;;;;;4.68;2.70;;;12.50;99.90;;;;;;5051672;28;20025;-59
2023/08/07 05:51:55;;;;;;;5.00;2.80;;;12.50;99.90;;;;;;5052151;28;20029;-60
2023/08/07 05:54:21;;;;;;;8.32;2.83;;;12.50;99.90;;;;;;5051994;28;20615;-59
2023/08/07 05:56:47;;;;;;;4.38;2.40;;;12.60;99.90;;;;;;5051979;28;20558;-59
2023/08/07 05:59:13;;;;;;;6.18;2.60;;;12.60;99.90;;;;;;5050862;28;20127;-59
2023/08/07 06:01:38;;;;;;;7.15;3.55;;;12.70;99.90;;;;;;5052081;28;20025;-59
2023/08/07 06:04:04;;;;;;;9.63;4.10;;;12.70;99.90;;;;;;5051634;28;20052;-59
2023/08/07 06:06:30;;;;;;;9.63;4.63;;;12.80;99.90;;;;;;5051577;28;20036;-59
2023/08/07 06:08:55;;;;;;;7.05;3.90;;;13.10;99.90;;;;;;5051621;28;20431;-59
2023/08/07 06:11:21;;;;;;;4.90;3.05;;;13.40;99.90;;;;;;5051818;28;20075;-59
2023/08/07 06:13:47;;;;;;;7.18;3.17;;;13.60;99.90;;;;;;5051528;28;20795;-59
2023/08/07 06:16:12;;;;;;;6.25;2.90;;;13.70;99.90;;;;;;5051570;28;20040;-60
2023/08/07 06:18:38;;;;;;;5.78;2.60;;;13.80;99.90;;;;;;5051794;28;20082;-60
2023/08/07 06:21:07;;;;;;;5.95;2.72;;;13.90;99.90;;;;;;5051291;28;20100;-60
2023/08/07 06:23:33;;;;;;;6.55;2.47;;;14.00;99.90;;;;;;5051553;28;20458;-59
2023/08/07 06:26:00;;;;;;;8.07;2.63;;;14.10;99.90;;;;;;5051560;28;20124;-59
2023/08/07 06:28:26;;;;;;;6.80;2.60;;;14.20;99.90;;;;;;5051416;28;20036;-59
2023/08/07 06:30:51;;;;;;;8.30;2.70;;;14.20;99.90;;;;;;5051701;28;20029;-60
2023/08/07 06:33:17;;;;;;;4.65;2.40;;;14.10;99.90;;;;;;5051364;28;20036;-59
2023/08/07 06:35:42;;;;;;;5.75;2.63;;;14.10;99.90;;;;;;5051105;28;20078;-59
2023/08/07 06:38:08;;;;;;;8.48;2.67;;;14.00;99.90;;;;;;5051714;28;20029;-59
2023/08/07 06:40:37;;;;;;;5.28;2.70;;;14.00;99.90;;;;;;5051256;28;20058;-59
2023/08/07 06:43:03;;;;;;;7.53;3.03;;;13.90;99.90;;;;;;5051039;28;20401;-60
2023/08/07 06:45:29;;;;;;;7.30;2.40;;;13.90;99.90;;;;;;5051320;28;20111;-59
2023/08/07 06:47:55;;;;;;;6.60;2.75;;;14.00;99.90;;;;;;5051139;28;20037;-60
2023/08/07 06:50:21;;;;;;;6.10;2.55;;;14.10;99.90;;;;;;5050773;28;20040;-59
2023/08/07 06:52:47;;;;;;;6.80;2.40;;;14.10;99.90;;;;;;5051563;28;20021;-59
2023/08/07 06:55:12;;;;;;;6.35;2.47;;;14.10;99.90;;;;;;5051217;28;20476;-60
2023/08/07 06:57:39;;;;;;;6.40;2.60;;;14.20;99.90;;;;;;5051222;28;20111;-60
2023/08/07 07:00:05;;;;;;;6.07;2.47;;;14.30;99.90;;;;;;5050657;28;20451;-60
2023/08/07 07:02:32;;;;;;;6.38;2.83;;;14.50;99.90;;;;;;5051023;28;20414;-59
2023/08/07 07:04:57;;;;;;;5.75;2.30;;;14.60;99.90;;;;;;5050705;28;20028;-60
2023/08/07 07:07:23;;;;;;;6.18;2.90;;;14.70;99.90;;;;;;5049645;28;20505;-59
2023/08/07 07:09:49;;;;;;;8.15;2.40;;;14.80;99.90;;;;;;5051006;28;20024;-60
2023/08/07 07:12:14;;;;;;;6.82;2.33;;;14.90;99.90;;;;;;5050925;28;20421;-60
2023/08/07 07:14:40;;;;;;;8.30;2.63;;;14.90;99.90;;;;;;5050703;28;20445;-60
2023/08/07 07:17:06;;;;;;;5.88;2.90;;;15.10;99.90;;;;;;5051393;28;20435;-60
2023/08/07 07:19:31;;;;;;;7.22;2.85;;;15.10;99.90;;;;;;5050252;28;20103;-60
2023/08/07 07:21:57;;;;;;;6.03;2.55;;;15.30;99.90;;;;;;5051107;28;20500;-59
2023/08/07 07:24:22;;;;;;;6.70;2.80;;;15.30;99.90;;;;;;5051189;28;20106;-59
2023/08/07 07:26:48;;;;;;;5.55;2.65;;;15.50;99.90;;;;;;5050888;28;20060;-60
2023/08/07 07:29:14;;;;;;;5.70;2.60;;;15.90;99.90;;;;;;5050703;28;20139;-59
2023/08/07 07:31:39;;;;;;;8.27;2.80;;;16.00;99.90;;;;;;5050736;28;20025;-59
2023/08/07 07:34:05;;;;;;;4.97;2.60;;;16.10;99.90;;;;;;5050653;28;20040;-59
2023/08/07 07:36:30;;;;;;;6.00;2.50;;;16.20;99.90;;;;;;5050886;28;20017;-60
2023/08/07 07:38:56;;;;;;;7.28;3.13;;;16.40;99.90;;;;;;5050665;28;20395;-59
2023/08/07 07:41:23;;;;;;;8.90;2.60;;;16.50;99.90;;;;;;5050718;28;20025;-59
2023/08/07 07:43:48;;;;;;;6.18;2.40;;;16.60;99.90;;;;;;5050844;28;20048;-59
2023/08/07 07:46:14;;;;;;;6.70;2.70;;;16.70;99.90;;;;;;5050393;28;20021;-59
2023/08/07 07:48:40;;;;;;;7.85;2.60;;;16.80;99.90;;;;;;5050571;28;20029;-60
2023/08/07 07:51:05;;;;;;;8.23;3.00;;;16.90;99.90;;;;;;5050649;28;20100;-60
2023/08/07 07:53:31;;;;;;;6.75;3.13;;;16.80;99.90;;;;;;5050970;28;20041;-60
2023/08/07 07:55:57;;;;;;;7.20;2.70;;;16.80;99.90;;;;;;5050682;28;20025;-60
2023/08/07 07:58:23;;;;;;;5.82;2.58;;;16.80;99.90;;;;;;5050357;28;20025;-59
2023/08/07 08:00:49;;;;;;;7.60;2.72;;;16.70;99.90;;;;;;5050159;28;20021;-60
2023/08/07 08:03:15;;;;;;;8.65;2.55;;;16.70;99.90;;;;;;5050464;28;20071;-60
2023/08/07 08:05:40;;;;;;;7.47;2.85;;;16.80;99.90;;;;;;5050539;28;20021;-60
2023/08/07 08:08:09;;;;;;;10.30;3.03;;;16.80;99.90;;;;;;5050748;28;20040;-60
2023/08/07 08:10:35;;;;;;;7.38;2.72;;;16.80;99.90;;;;;;5050694;28;20393;-60
2023/08/07 08:13:03;;;;;;;7.70;3.17;;;16.90;99.90;;;;;;5053744;28;20029;-59
2023/08/07 08:15:29;;;;;;;7.43;3.00;;;16.90;99.90;;;;;;5053495;28;20045;-59
2023/08/07 08:17:55;;;;;;;8.73;2.58;;;17.00;99.90;;;;;;5054399;28;20299;-60
2023/08/07 08:20:21;;;;;;;6.90;2.53;;;17.00;99.90;;;;;;5053748;28;20052;-60
2023/08/07 08:22:47;;;;;;;7.20;2.58;;;17.10;99.90;;;;;;5053859;28;20044;-60
2023/08/07 08:25:13;;;;;;;8.20;2.85;;;17.10;99.90;;;;;;5053698;28;20059;-60
2023/08/07 08:27:39;;;;;;;7.15;2.50;;;17.20;99.90;;;;;;5054036;28;20036;-60
2023/08/07 08:30:07;;;;;;;5.57;2.50;;;17.30;99.90;;;;;;5053304;28;20085;-59
2023/08/07 08:32:33;;;;;;;6.72;2.75;;;17.40;99.90;;;;;;5053673;28;20050;-60
2023/08/07 08:34:59;;;;;;;6.43;2.85;;;17.40;99.90;;;;;;5053507;28;20033;-60
2023/08/07 08:37:24;;;;;;;6.65;2.40;;;17.40;99.90;;;;;;5053854;28;20032;-60
2023/08/07 08:39:50;;;;;;;8.45;2.80;;;17.40;99.90;;;;;;5053690;28;20048;-60
2023/08/07 08:42:18;;;;;;;6.72;2.78;;;17.40;99.90;;;;;;5053157;28;20474;-59
2023/08/07 08:44:52;;;;;;;7.30;2.65;;;17.50;99.90;;;;;;5053231;28;20072;-60
2023/08/07 08:47:18;;;;;;;6.97;3.13;;;17.60;99.90;;;;;;5053860;28;20017;-60
2023/08/07 08:49:49;;;;;;;6.68;2.70;;;17.90;99.90;;;;;;5053446;28;20021;-59
2023/08/07 08:52:16;;;;;;;6.43;2.45;;;18.30;99.90;;;;;;5053516;28;20118;-59
2023/08/07 08:54:44;;;;;;;8.38;2.75;;;18.40;99.90;;;;;;5053057;28;20040;-60
2023/08/07 08:57:11;;;;;;;7.53;2.70;;;18.50;99.90;;;;;;5053135;28;20027;-60
2023/08/07 08:59:37;;;;;;;6.88;2.55;;;18.70;99.90;;;;;;5052908;28;20035;-60
2023/08/07 09:02:04;;;;;;;7.35;2.67;;;18.80;99.90;;;;;;5053367;28;20032;-60
2023/08/07 09:04:30;;;;;;;6.47;2.20;;;18.80;99.90;;;;;;5053223;28;20383;-59
2023/08/07 09:06:55;;;;;;;7.97;2.38;;;18.80;99.90;;;;;;5052885;28;20020;-59
2023/08/07 09:09:22;;;;;;;5.90;2.22;;;18.80;99.90;;;;;;5052946;28;20046;-60
2023/08/07 09:11:48;;;;;;;10.27;3.22;;;18.90;99.90;;;;;;5052908;28;20032;-60
2023/08/07 09:14:26;;;;;;;6.78;2.60;;;19.00;99.90;;;;;;5052406;28;20060;-60
2023/08/07 09:16:53;;;;;;;7.95;2.80;;;18.80;99.90;;;;;;5052763;28;20037;-59
2023/08/07 09:19:19;;;;;;;7.80;2.92;;;18.70;99.90;;;;;;5052784;28;20539;-60
2023/08/07 09:21:45;;;;;;;8.73;3.35;;;18.50;99.90;;;;;;5052840;28;20029;-60
2023/08/07 09:24:11;;;;;;;10.85;3.53;;;18.50;99.90;;;;;;5051789;28;20111;-60
2023/08/07 09:26:38;;;;;;;7.28;3.10;;;18.50;99.90;;;;;;5053028;28;20572;-60
2023/08/07 09:29:04;;;;;;;8.40;3.47;;;18.50;99.90;;;;;;5050809;28;20052;-60
2023/08/07 09:31:30;;;;;;;8.93;3.25;;;18.50;99.90;;;;;;5052550;28;20025;-59
2023/08/07 09:34:03;;;;;;;7.60;3.17;;;18.40;99.90;;;;;;5052583;28;20017;-59
2023/08/07 09:36:33;;;;;;;6.47;2.90;;;18.50;99.90;;;;;;5052538;28;20017;-60
2023/08/07 09:39:03;;;;;;;7.57;3.15;;;18.60;99.90;;;;;;5052723;28;20031;-60
2023/08/07 09:41:30;;;;;;;6.93;2.85;;;18.80;99.90;;;;;;5052273;28;20029;-60
2023/08/07 09:44:06;;;;;;;5.50;2.83;;;18.80;99.90;;;;;;5051858;28;20498;-59
2023/08/07 09:46:40;;;;;;;7.10;2.90;;;18.90;99.90;;;;;;5052306;28;20490;-60
2023/08/07 09:49:05;;;;;;;8.45;2.92;;;18.80;99.90;;;;;;5052258;28;20043;-60
2023/08/07 09:51:45;;;;;;;8.10;2.90;;;18.80;99.90;;;;;;5052140;28;20448;-60
2023/08/07 09:54:11;;;;;;;6.22;2.42;;;18.90;99.90;;;;;;5051937;28;20401;-60
2023/08/07 09:56:37;;;;;;;7.68;3.10;;;19.00;99.90;;;;;;5052034;28;20056;-60
2023/08/07 09:59:04;;;;;;;7.75;3.20;;;19.00;99.90;;;;;;5051972;28;20060;-60
2023/08/07 10:01:29;;;;;;;7.22;2.92;;;19.10;99.90;;;;;;5051981;28;20036;-59
2023/08/07 10:03:56;;;;;;;5.30;3.15;;;19.20;99.90;;;;;;5051941;28;20405;-59
2023/08/07 10:06:22;;;;;;;5.63;2.60;;;19.30;99.90;;;;;;5052169;28;20066;-60
2023/08/07 10:08:48;;;;;;;6.68;2.90;;;19.50;99.90;;;;;;5051744;28;20402;-60
2023/08/07 10:11:15;;;;;;;7.38;2.80;;;19.70;99.90;;;;;;5050211;28;20021;-59
2023/08/07 10:13:41;;;;;;;7.55;2.60;;;20.00;99.90;;;;;;5051683;28;20032;-60
2023/08/07 10:16:07;;;;;;;7.80;2.58;;;20.20;99.90;;;;;;5051698;28;20025;-60
2023/08/07 10:18:34;;;;;;;6.90;2.33;;;20.20;99.90;;;;;;5051695;28;20031;-59
2023/08/07 10:21:01;;;;;;;5.25;1.92;;;20.40;99.90;;;;;;5051607;28;20021;-60
2023/08/07 10:23:27;;;;;;;7.32;2.35;;;20.60;99.90;;;;;;5051469;28;20091;-60
2023/08/07 10:25:54;;;;;;;5.47;2.40;;;20.50;99.90;;;;;;5051057;28;20041;-59
2023/08/07 10:28:23;;;;;;;4.30;2.15;;;20.50;99.90;;;;;;5051510;28;20044;-60
2023/08/07 10:30:50;;;;;;;7.20;2.58;;;20.40;99.90;;;;;;5051535;28;20028;-60
2023/08/07 10:33:17;;;;;;;4.75;2.25;;;20.50;99.90;;;;;;5051712;28;20114;-60
2023/08/07 10:35:48;;;;;;;5.75;1.95;;;20.50;99.90;;;;;;5050601;28;20051;-60
2023/08/07 10:38:14;;;;;;;5.95;2.47;;;20.30;99.90;;;;;;5051096;28;20033;-61
2023/08/07 10:40:59;;;;;;;6.57;2.35;;;20.30;99.90;;;;;;5051003;28;20013;-60
2023/08/07 10:43:27;;;;;;;6.30;2.55;;;20.20;99.90;;;;;;5051165;28;20084;-59
2023/08/07 10:45:53;;;;;;;5.55;2.20;;;20.30;99.90;;;;;;5051286;28;20029;-60
2023/08/07 10:48:21;;;;;;;5.78;2.65;;;20.30;99.90;;;;;;5051470;28;20405;-60
2023/08/07 10:51:03;;;;;;;5.57;2.20;;;20.20;99.90;;;;;;5051238;28;20106;-60
2023/08/07 10:53:37;;;;;;;5.25;2.10;;;20.20;99.90;;;;;;5051077;28;20017;-59
2023/08/07 10:56:09;;;;;;;6.40;2.38;;;20.40;99.90;;;;;;5049576;28;20029;-60
2023/08/07 10:58:37;;;;;;;5.75;2.20;;;20.40;99.90;;;;;;5049646;28;20017;-60
2023/08/07 11:01:41;;;;;;;7.22;2.60;;;20.40;99.90;;;;;;5051457;28;20021;-60
2023/08/07 11:04:14;;;;;;;6.50;2.20;;;20.40;99.90;;;;;;5050587;28;20057;-60
2023/08/07 11:06:41;;;;;;;5.97;2.28;;;20.50;99.90;;;;;;5050924;28;20040;-60
2023/08/07 11:09:08;;;;;;;6.80;2.13;;;20.70;99.90;;;;;;5050810;28;20509;-60
2023/08/07 11:11:48;;;;;;;3.83;1.95;;;20.70;99.90;;;;;;5050527;28;20029;-60
2023/08/07 11:14:15;;;;;;;4.78;2.08;;;20.70;99.90;;;;;;5050863;28;20029;-60
2023/08/07 11:16:42;;;;;;;5.25;2.30;;;20.80;99.90;;;;;;5051122;28;20036;-60
2023/08/07 11:19:08;;;;;;;4.88;2.00;;;20.90;99.90;;;;;;5051012;28;20028;-60
2023/08/07 11:21:35;;;;;;;6.20;2.00;;;20.90;99.90;;;;;;5050768;28;20051;-60
2023/08/07 11:24:01;;;;;;;4.72;2.38;;;21.00;99.90;;;;;;5050497;28;20033;-61
2023/08/07 11:26:28;;;;;;;6.75;2.00;;;21.20;99.90;;;;;;5050885;28;20037;-60
2023/08/07 11:28:57;;;;;;;5.32;2.22;;;21.50;99.90;;;;;;5050648;28;20033;-59
2023/08/07 11:31:24;;;;;;;3.95;1.92;;;21.70;99.90;;;;;;5051068;28;20075;-60
2023/08/07 11:33:55;;;;;;;4.95;1.85;;;21.70;99.90;;;;;;5050816;28;20017;-59
2023/08/07 11:36:22;;;;;;;4.63;2.08;;;21.80;99.90;;;;;;5050758;28;20082;-60
2023/08/07 11:38:48;;;;;;;4.72;2.30;;;21.90;99.90;;;;;;5050315;28;20067;-60
2023/08/07 11:41:15;;;;;;;4.43;1.90;;;22.00;99.90;;;;;;5050861;28;20053;-60
2023/08/07 11:43:42;;;;;;;5.07;2.00;;;22.10;99.90;;;;;;5050603;28;20052;-60
2023/08/07 11:46:10;;;;;;;3.95;1.98;;;22.10;99.90;;;;;;5051605;28;20036;-60
2023/08/07 11:48:38;;;;;;;4.53;2.15;;;22.20;99.90;;;;;;5054500;28;20482;-60
2023/08/07 11:51:05;;;;;;;6.55;2.45;;;22.20;99.90;;;;;;5052796;28;20397;-60
2023/08/07 11:53:33;;;;;;;5.20;1.80;;;22.20;99.90;;;;;;5054386;28;20029;-60
2023/08/07 11:56:01;;;;;;;5.60;1.90;;;22.20;99.90;;;;;;5054377;28;20021;-59
2023/08/07 11:58:33;;;;;;;3.33;1.98;;;22.10;99.90;;;;;;5054245;28;20143;-59
2023/08/07 12:00:59;;;;;;;7.40;2.00;;;22.10;99.90;;;;;;5054209;28;20029;-59
2023/08/07 12:03:39;;;;;;;3.40;2.00;;;22.10;99.90;;;;;;5054420;28;20387;-59
2023/08/07 12:06:06;;;;;;;5.45;1.90;;;22.10;99.90;;;;;;5054150;28;20024;-60
2023/08/07 12:08:39;;;;;;;3.92;2.00;;;22.10;99.90;;;;;;5053698;28;20059;-59
2023/08/07 12:11:07;;;;;;;5.20;2.00;;;22.10;99.90;;;;;;5054149;28;20025;-59
2023/08/07 12:13:40;;;;;;;4.90;2.15;;;22.10;99.90;;;;;;5053794;28;20029;-60
2023/08/07 12:16:07;;;;;;;5.40;2.30;;;22.20;99.90;;;;;;5053890;28;20025;-59
2023/08/07 12:18:33;;;;;;;4.35;2.20;;;22.40;99.90;;;;;;5053813;28;20052;-59
2023/08/07 12:21:06;;;;;;;5.32;1.85;;;22.30;99.90;;;;;;5053736;28;20029;-60
2023/08/07 12:23:35;;;;;;;5.53;1.98;;;22.40;99.90;;;;;;5053388;28;20052;-60
2023/08/07 12:26:02;;;;;;;4.93;2.05;;;22.40;99.90;;;;;;5054144;28;20425;-59
2023/08/07 12:28:28;;;;;;;6.97;2.30;;;22.30;99.90;;;;;;5053755;28;20387;-60
2023/08/07 12:30:53;;;;;;;4.90;1.95;;;22.40;99.90;;;;;;5053668;28;20032;-60
2023/08/07 12:33:19;;;;;;;8.40;2.67;;;22.50;99.90;;;;;;5053680;28;20432;-60
2023/08/07 12:35:45;;;;;;;8.73;2.60;;;22.50;99.90;;;;;;5054089;28;20033;-60
2023/08/07 12:38:13;;;;;;;4.75;2.17;;;22.60;99.90;;;;;;5053204;28;20047;-60
2023/08/07 12:40:39;;;;;;;5.60;2.38;;;22.50;99.90;;;;;;5053440;28;20037;-59
2023/08/07 12:43:05;;;;;;;4.60;2.20;;;22.80;99.90;;;;;;5053325;28;20105;-59
2023/08/07 12:45:32;;;;;;;5.47;2.28;;;22.90;99.90;;;;;;5053387;28;20104;-59